createdAt,value
2023-05-22T00:02:50.793Z,86.14
2023-05-22T00:05:53.230Z,85.81
2023-05-22T00:08:54.562Z,85.36
2023-05-22T00:11:55.931Z,85.30
2023-05-22T00:14:57.380Z,85.40
2023-05-22T00:17:58.879Z,86.10
2023-05-22T00:21:00.269Z,87.05
2023-05-22T00:24:01.905Z,87.36
2023-05-22T00:27:03.311Z,87.17
2023-05-22T00:30:04.949Z,87.28
2023-05-22T00:33:06.352Z,86.25
2023-05-22T00:36:07.942Z,86.42
2023-05-22T00:39:09.854Z,86.29
2023-05-22T00:42:11.404Z,85.90
2023-05-22T00:45:17.494Z,86.18
2023-05-22T00:48:18.827Z,85.98
2023-05-22T00:51:21.286Z,86.25
2023-05-22T00:54:22.741Z,85.58
2023-05-22T00:57:24.595Z,85.56
2023-05-22T01:00:26.164Z,86.88
2023-05-22T01:03:28.409Z,87.22
2023-05-22T01:06:32.160Z,87.27
2023-05-22T01:09:33.665Z,88.43
2023-05-22T01:12:38.268Z,88.16
2023-05-22T01:15:48.581Z,88.12
2023-05-22T01:18:55.009Z,87.96
2023-05-22T01:22:02.605Z,87.67
2023-05-22T01:25:26.510Z,87.02
2023-05-22T01:28:47.046Z,86.65
2023-05-22T01:31:48.952Z,87.54
2023-05-22T01:34:53.275Z,87.13
2023-05-22T01:37:55.156Z,87.44
2023-05-22T01:40:56.531Z,87.39
2023-05-22T01:43:58.198Z,87.64
2023-05-22T01:47:04.950Z,88.67
2023-05-22T01:50:06.750Z,88.81
2023-05-22T01:53:12.662Z,89.78
2023-05-22T01:56:20.959Z,89.46
2023-05-22T01:59:22.282Z,90.03
2023-05-22T02:02:24.626Z,90.70
2023-05-22T02:05:27.610Z,92.49
2023-05-22T02:08:29.754Z,92.96
2023-05-22T02:11:31.501Z,91.96
2023-05-22T02:14:33.496Z,92.14
2023-05-22T02:17:36.875Z,92.70
2023-05-22T02:20:38.583Z,92.26
2023-05-22T02:23:40.541Z,92.62
2023-05-22T02:26:42.520Z,93.48
2023-05-22T02:29:43.874Z,94.68
2023-05-22T02:32:45.322Z,94.81
2023-05-22T02:35:46.701Z,94.01
2023-05-22T02:38:48.046Z,93.51
2023-05-22T02:41:49.460Z,93.13
2023-05-22T02:44:50.873Z,94.03
2023-05-22T02:47:52.329Z,95.46
2023-05-22T02:50:53.726Z,95.60
2023-05-22T02:53:55.059Z,96.32
2023-05-22T02:56:56.864Z,97.37
2023-05-22T02:59:59.223Z,96.86
2023-05-22T03:03:00.699Z,96.81
2023-05-22T03:06:04.123Z,96.10
2023-05-22T03:09:05.679Z,97.33
2023-05-22T03:12:07.245Z,96.90
2023-05-22T03:15:08.924Z,97.28
2023-05-22T03:18:10.372Z,97.36
2023-05-22T03:21:11.723Z,96.13
2023-05-22T03:24:13.125Z,98.58
2023-05-22T03:27:16.186Z,97.93
2023-05-22T03:30:17.604Z,97.07
2023-05-22T03:33:19.055Z,98.85
2023-05-22T03:36:21.298Z,98.92
2023-05-22T03:39:22.669Z,97.19
2023-05-22T03:42:24.045Z,98.14
2023-05-22T03:45:25.442Z,97.24
2023-05-22T03:48:26.795Z,97.91
2023-05-22T03:51:28.092Z,97.29
2023-05-22T03:54:29.422Z,97.19
2023-05-22T03:57:30.876Z,98.08
2023-05-22T04:00:33.334Z,97.80
2023-05-22T04:03:34.736Z,98.25
2023-05-22T04:06:42.934Z,97.73
2023-05-22T04:09:44.348Z,99.36
2023-05-22T04:12:45.702Z,97.73
2023-05-22T04:15:47.139Z,99.55
2023-05-22T04:18:48.589Z,97.90
2023-05-22T04:21:50.016Z,98.14
2023-05-22T04:24:51.376Z,99.41
2023-05-22T04:27:52.807Z,98.36
2023-05-22T04:30:54.620Z,99.36
2023-05-22T04:33:56.192Z,100.00
2023-05-22T04:36:58.048Z,99.26
2023-05-22T04:40:06.252Z,99.23
2023-05-22T04:43:07.663Z,99.92
2023-05-22T04:46:09.084Z,100.00
2023-05-22T04:49:10.447Z,100.00
2023-05-22T04:52:12.078Z,100.00
2023-05-22T04:55:13.802Z,99.35
2023-05-22T04:58:15.485Z,99.81
2023-05-22T05:01:16.919Z,100.00
2023-05-22T05:04:18.349Z,100.00
2023-05-22T05:07:19.800Z,100.00
2023-05-22T05:10:21.245Z,100.00
2023-05-22T05:13:22.641Z,100.00
2023-05-22T05:16:25.193Z,100.00
2023-05-22T05:19:26.642Z,100.00
2023-05-22T05:22:28.006Z,100.00
2023-05-22T05:25:29.376Z,100.00
2023-05-22T05:28:30.815Z,100.00
2023-05-22T05:31:32.948Z,100.00
2023-05-22T05:34:34.430Z,100.00
2023-05-22T05:37:35.809Z,100.00
2023-05-22T05:40:37.382Z,100.00
2023-05-22T05:43:38.857Z,100.00
2023-05-22T05:46:40.218Z,100.00
2023-05-22T05:49:41.732Z,99.89
2023-05-22T05:52:43.065Z,99.18
2023-05-22T05:55:44.452Z,96.86
2023-05-22T05:58:45.858Z,96.49
2023-05-22T06:01:48.216Z,96.57
2023-05-22T06:04:49.652Z,98.09
2023-05-22T06:07:51.896Z,98.08
2023-05-22T06:10:53.340Z,100.00
2023-05-22T06:13:55.479Z,100.00
2023-05-22T06:16:57.343Z,100.00
2023-05-22T06:19:58.924Z,100.00
2023-05-22T06:23:00.302Z,100.00
2023-05-22T06:26:01.700Z,100.00
2023-05-22T06:29:03.116Z,100.00
2023-05-22T06:32:04.659Z,100.00
2023-05-22T06:35:12.544Z,98.89
2023-05-22T06:38:13.910Z,98.48
2023-05-22T06:41:15.234Z,97.25
2023-05-22T06:44:17.129Z,98.28
2023-05-22T06:47:18.807Z,98.60
2023-05-22T06:50:20.804Z,100.00
2023-05-22T06:53:23.833Z,100.00
2023-05-22T06:56:25.420Z,95.95
2023-05-22T06:59:26.837Z,96.87
2023-05-22T07:02:28.292Z,87.61
2023-05-22T07:05:29.754Z,90.81
2023-05-22T07:08:31.274Z,90.81
2023-05-22T07:11:32.809Z,86.22
2023-05-22T07:14:34.125Z,85.74
2023-05-22T07:17:35.500Z,83.04
2023-05-22T07:20:39.941Z,82.11
2023-05-22T07:23:41.527Z,78.93
2023-05-22T07:26:49.443Z,75.35
2023-05-22T07:29:51.025Z,79.83
2023-05-22T07:32:52.418Z,78.12
2023-05-22T07:35:53.797Z,77.54
2023-05-22T07:38:55.164Z,78.88
2023-05-22T07:41:57.529Z,77.88
2023-05-22T07:45:00.919Z,78.46
2023-05-22T07:48:04.249Z,83.12
2023-05-22T07:51:05.947Z,72.47
2023-05-22T07:54:08.038Z,71.70
2023-05-22T07:57:09.542Z,75.40
2023-05-22T08:00:13.564Z,71.07
2023-05-22T08:03:17.560Z,79.29
2023-05-22T08:06:19.617Z,75.74
2023-05-22T08:09:21.612Z,77.85
2023-05-22T08:12:23.024Z,73.17
2023-05-22T08:15:24.418Z,73.00
2023-05-22T08:18:28.067Z,70.05
2023-05-22T08:21:29.432Z,70.30
2023-05-22T08:24:31.360Z,72.24
2023-05-22T08:27:32.768Z,70.28
2023-05-22T08:30:34.156Z,74.37
2023-05-22T08:33:35.718Z,71.95
2023-05-22T08:36:37.366Z,68.61
2023-05-22T08:39:38.736Z,70.62
2023-05-22T08:42:40.172Z,68.51
2023-05-22T08:45:43.757Z,62.51
2023-05-22T08:48:45.953Z,66.17
2023-05-22T08:51:48.136Z,65.83
2023-05-22T08:54:53.079Z,69.12
2023-05-22T08:57:56.048Z,66.93
2023-05-22T09:00:58.276Z,64.16
2023-05-22T09:04:00.880Z,63.30
2023-05-22T09:07:05.979Z,65.79
2023-05-22T09:10:07.821Z,66.27
2023-05-22T09:13:09.826Z,62.97
2023-05-22T09:16:12.619Z,65.22
2023-05-22T09:19:14.941Z,63.97
2023-05-22T09:22:16.773Z,62.06
2023-05-22T09:25:19.339Z,65.17
2023-05-22T09:28:20.703Z,62.88
2023-05-22T09:31:22.075Z,63.88
2023-05-22T09:34:27.808Z,60.73
2023-05-22T09:37:32.580Z,60.57
2023-05-22T09:40:35.262Z,59.38
2023-05-22T09:43:36.699Z,63.72
2023-05-22T09:46:45.600Z,57.04
2023-05-22T09:49:47.121Z,55.80
2023-05-22T09:52:50.859Z,58.07
2023-05-22T09:55:53.032Z,56.18
2023-05-22T09:58:55.052Z,54.10
2023-05-22T10:01:57.241Z,52.09
2023-05-22T10:05:00.577Z,52.57
2023-05-22T10:08:09.051Z,51.09
2023-05-22T10:11:11.293Z,47.62
2023-05-22T10:14:12.681Z,48.72
2023-05-22T10:17:16.875Z,49.82
2023-05-22T10:20:18.896Z,50.09
2023-05-22T10:23:22.471Z,50.43
2023-05-22T10:26:24.956Z,46.71
2023-05-22T10:29:33.411Z,51.21
2023-05-22T10:32:43.426Z,48.17
2023-05-22T10:35:52.226Z,48.63
2023-05-22T10:38:56.401Z,50.35
2023-05-22T10:41:57.813Z,47.53
2023-05-22T10:45:03.025Z,49.03
2023-05-22T10:48:11.772Z,48.64
2023-05-22T10:51:14.409Z,47.44
2023-05-22T10:54:16.041Z,45.25
2023-05-22T10:57:17.758Z,43.00
2023-05-22T11:00:21.136Z,41.49
2023-05-22T11:03:22.708Z,42.05
2023-05-22T11:06:40.966Z,42.33
2023-05-22T11:09:48.766Z,41.81
2023-05-22T11:13:02.219Z,41.65
2023-05-22T11:16:05.234Z,42.95
2023-05-22T11:19:22.902Z,40.62
2023-05-22T11:22:45.575Z,38.72
2023-05-22T11:25:49.349Z,37.63
2023-05-22T11:28:51.854Z,37.45
2023-05-22T11:31:53.428Z,37.85
2023-05-22T11:34:56.842Z,35.19
2023-05-22T11:37:58.825Z,34.78
2023-05-22T11:41:00.266Z,34.91
2023-05-22T11:44:02.707Z,32.90
2023-05-22T11:47:04.186Z,35.04
2023-05-22T11:50:08.462Z,32.06
2023-05-22T11:53:10.205Z,32.72
2023-05-22T11:56:11.631Z,33.38
2023-05-22T11:59:12.967Z,32.99
2023-05-22T12:02:15.680Z,33.53
2023-05-22T12:05:17.073Z,34.80
2023-05-22T12:08:18.517Z,35.99
2023-05-22T12:11:19.869Z,37.89
2023-05-22T12:14:25.819Z,37.95
2023-05-22T12:17:28.413Z,37.75
2023-05-22T12:20:30.970Z,37.75
2023-05-22T12:23:32.416Z,35.30
2023-05-22T12:26:33.806Z,36.32
2023-05-22T12:29:35.146Z,35.84
2023-05-22T12:32:36.611Z,36.59
2023-05-22T12:35:38.525Z,35.86
2023-05-22T12:38:40.683Z,35.75
2023-05-22T12:41:42.092Z,34.44
2023-05-22T12:44:45.258Z,35.33
2023-05-22T12:47:46.969Z,34.96
2023-05-22T12:50:48.825Z,35.14
2023-05-22T12:53:50.177Z,36.19
2023-05-22T12:56:51.529Z,34.73
2023-05-22T12:59:52.847Z,35.03
2023-05-22T13:02:54.551Z,35.02
2023-05-22T13:05:56.081Z,34.29
2023-05-22T13:08:57.602Z,33.20
2023-05-22T13:11:59.984Z,33.62
2023-05-22T13:15:01.720Z,33.55
2023-05-22T13:18:03.173Z,31.75
2023-05-22T13:21:04.682Z,33.38
2023-05-22T13:24:06.090Z,29.79
2023-05-22T13:27:07.582Z,31.65
2023-05-22T13:30:09.150Z,31.68
2023-05-22T13:33:10.892Z,31.25
2023-05-22T13:36:12.651Z,32.92
2023-05-22T13:39:14.034Z,31.85
2023-05-22T13:42:15.561Z,33.00
2023-05-22T13:45:16.910Z,31.90
2023-05-22T13:48:18.406Z,33.51
2023-05-22T13:51:19.731Z,32.25
2023-05-22T13:54:21.146Z,33.81
2023-05-22T13:57:22.583Z,32.31
2023-05-22T14:00:24.164Z,32.93
2023-05-22T14:03:25.617Z,33.24
2023-05-22T14:06:27.591Z,33.48
2023-05-22T14:09:29.700Z,33.73
2023-05-22T14:12:31.144Z,34.11
2023-05-22T14:15:32.462Z,33.23
2023-05-22T14:18:33.920Z,34.09
2023-05-22T14:21:35.263Z,34.31
2023-05-22T14:24:36.761Z,33.07
2023-05-22T14:27:38.106Z,32.38
2023-05-22T14:30:39.878Z,33.69
2023-05-22T14:33:41.431Z,30.60
2023-05-22T14:36:43.434Z,32.61
2023-05-22T14:39:44.876Z,29.38
2023-05-22T14:42:46.300Z,31.51
2023-05-22T14:45:47.716Z,31.75
2023-05-22T14:48:49.069Z,32.03
2023-05-22T14:51:50.453Z,31.66
2023-05-22T14:54:51.951Z,30.97
2023-05-22T14:57:53.664Z,31.14
2023-05-22T15:00:55.170Z,30.37
2023-05-22T15:03:56.520Z,31.22
2023-05-22T15:06:57.865Z,30.14
2023-05-22T15:09:59.535Z,31.43
2023-05-22T15:13:02.129Z,31.58
2023-05-22T15:16:03.645Z,30.84
2023-05-22T15:19:05.224Z,30.63
2023-05-22T15:22:19.593Z,32.83
2023-05-22T15:25:21.426Z,31.71
2023-05-22T15:28:22.843Z,32.67
2023-05-22T15:31:24.228Z,31.61
2023-05-22T15:34:25.610Z,32.09
2023-05-22T15:37:27.460Z,32.53
2023-05-22T15:40:29.047Z,31.58
2023-05-22T15:43:30.845Z,31.21
2023-05-22T15:46:32.278Z,30.52
2023-05-22T15:49:33.736Z,30.81
2023-05-22T15:52:35.502Z,31.16
2023-05-22T15:55:36.932Z,31.52
2023-05-22T15:58:38.339Z,32.05
2023-05-22T16:01:39.855Z,32.83
2023-05-22T16:04:41.312Z,33.22
2023-05-22T16:07:42.825Z,34.07
2023-05-22T16:10:46.367Z,32.54
2023-05-22T16:13:47.903Z,30.93
2023-05-22T16:16:49.258Z,31.77
2023-05-22T16:19:51.336Z,31.49
2023-05-22T16:22:52.680Z,33.05
2023-05-22T16:25:54.106Z,30.77
2023-05-22T16:28:55.429Z,32.27
2023-05-22T16:31:57.056Z,30.48
2023-05-22T16:34:58.551Z,31.09
2023-05-22T16:37:59.996Z,30.84
2023-05-22T16:41:01.393Z,31.51
2023-05-22T16:44:03.005Z,33.98
2023-05-22T16:47:04.513Z,31.10
2023-05-22T16:50:06.346Z,32.58
2023-05-22T16:53:07.775Z,32.80
2023-05-22T16:56:09.212Z,32.65
2023-05-22T16:59:10.571Z,34.56
2023-05-22T17:02:12.157Z,35.02
2023-05-22T17:05:13.569Z,34.66
2023-05-22T17:08:14.997Z,36.04
2023-05-22T17:11:16.374Z,37.00
2023-05-22T17:14:17.721Z,37.68
2023-05-22T17:17:19.079Z,38.32
2023-05-22T17:20:22.066Z,38.51
2023-05-22T17:23:23.734Z,39.54
2023-05-22T17:26:25.189Z,39.23
2023-05-22T17:29:28.121Z,39.45
2023-05-22T17:32:29.732Z,39.56
2023-05-22T17:35:31.225Z,40.37
2023-05-22T17:38:32.631Z,41.21
2023-05-22T17:41:33.997Z,40.87
2023-05-22T17:44:36.075Z,41.82
2023-05-22T17:47:37.479Z,41.22
2023-05-22T17:50:39.109Z,42.30
2023-05-22T17:53:40.800Z,42.90
2023-05-22T17:56:42.783Z,41.29
2023-05-22T17:59:44.229Z,41.87
2023-05-22T18:02:47.711Z,43.08
2023-05-22T18:05:49.502Z,42.97
2023-05-22T18:08:50.919Z,43.00
2023-05-22T18:11:52.579Z,42.65
2023-05-22T18:14:54.030Z,42.39
2023-05-22T18:17:55.419Z,42.83
2023-05-22T18:20:57.790Z,43.06
2023-05-22T18:23:59.119Z,44.01
2023-05-22T18:27:00.607Z,43.86
2023-05-22T18:30:02.743Z,43.02
2023-05-22T18:33:04.447Z,44.66
2023-05-22T18:36:05.809Z,43.23
2023-05-22T18:39:07.753Z,43.76
2023-05-22T18:42:09.149Z,43.95
2023-05-22T18:45:11.912Z,44.39
2023-05-22T18:48:13.400Z,43.12
2023-05-22T18:51:16.534Z,45.06
2023-05-22T18:54:17.900Z,44.51
2023-05-22T18:57:19.257Z,44.97
2023-05-22T19:00:20.750Z,45.15
2023-05-22T19:03:24.776Z,46.02
2023-05-22T19:06:29.268Z,45.89
2023-05-22T19:09:30.623Z,45.98
2023-05-22T19:12:32.011Z,45.02
2023-05-22T19:15:37.554Z,45.68
2023-05-22T19:18:38.977Z,45.38
2023-05-22T19:21:42.918Z,45.81
2023-05-22T19:24:44.316Z,45.34
2023-05-22T19:27:45.853Z,44.90
2023-05-22T19:30:47.282Z,44.92
2023-05-22T19:33:48.673Z,45.80
2023-05-22T19:36:51.736Z,45.80
2023-05-22T19:39:53.805Z,45.75
2023-05-22T19:42:55.214Z,46.69
2023-05-22T19:45:59.605Z,47.23
2023-05-22T19:49:01.038Z,47.82
2023-05-22T19:52:03.417Z,48.16
2023-05-22T19:55:05.203Z,47.61
2023-05-22T19:58:06.531Z,48.09
2023-05-22T20:01:07.906Z,49.89
2023-05-22T20:04:09.281Z,48.74
2023-05-22T20:07:10.682Z,49.96
2023-05-22T20:10:12.120Z,49.77
2023-05-22T20:13:13.505Z,50.03
2023-05-22T20:16:17.578Z,49.62
2023-05-22T20:19:19.087Z,50.31
2023-05-22T20:22:20.545Z,49.98
2023-05-22T20:25:21.984Z,50.65
2023-05-22T20:28:23.403Z,50.58
2023-05-22T20:31:24.796Z,51.16
2023-05-22T20:34:26.650Z,51.30
2023-05-22T20:37:29.578Z,52.15
2023-05-22T20:40:32.189Z,52.24
2023-05-22T20:43:34.526Z,52.33
2023-05-22T20:46:35.955Z,51.51
2023-05-22T20:49:38.287Z,52.98
2023-05-22T20:52:39.668Z,52.70
2023-05-22T20:55:41.257Z,52.85
2023-05-22T20:58:42.925Z,53.95
2023-05-22T21:01:45.602Z,54.11
2023-05-22T21:04:47.065Z,54.39
2023-05-22T21:07:48.445Z,55.31
2023-05-22T21:10:49.759Z,55.44
2023-05-22T21:13:51.121Z,55.48
2023-05-22T21:16:52.698Z,55.71
2023-05-22T21:19:54.129Z,57.20
2023-05-22T21:22:55.536Z,57.81
2023-05-22T21:25:56.856Z,57.35
2023-05-22T21:28:58.341Z,58.33
2023-05-22T21:31:59.828Z,57.83
2023-05-22T21:35:01.330Z,57.05
2023-05-22T21:38:02.829Z,57.86
2023-05-22T21:41:04.321Z,58.96
2023-05-22T21:44:05.714Z,59.65
2023-05-22T21:47:07.117Z,60.00
2023-05-22T21:50:08.655Z,59.77
2023-05-22T21:53:09.991Z,60.81
2023-05-22T21:56:11.330Z,61.39
2023-05-22T21:59:12.745Z,61.52
2023-05-22T22:02:14.361Z,62.10
2023-05-22T22:05:18.473Z,62.74
2023-05-22T22:08:19.849Z,62.82
2023-05-22T22:11:21.320Z,63.12
2023-05-22T22:14:23.242Z,62.74
2023-05-22T22:17:25.491Z,63.25
2023-05-22T22:20:42.674Z,62.99
2023-05-22T22:23:46.070Z,63.30
2023-05-22T22:26:49.124Z,64.08
2023-05-22T22:29:50.498Z,64.00
2023-05-22T22:32:52.139Z,63.40
2023-05-22T22:35:53.795Z,65.13
2023-05-22T22:38:55.112Z,66.67
2023-05-22T22:42:01.330Z,65.60
2023-05-22T22:45:02.726Z,66.84
2023-05-22T22:48:04.089Z,66.58
2023-05-22T22:51:06.029Z,66.62
2023-05-22T22:54:07.371Z,66.02
2023-05-22T22:57:08.826Z,66.58
2023-05-22T23:00:13.085Z,66.45
2023-05-22T23:03:14.477Z,66.85
2023-05-22T23:06:18.163Z,67.77
2023-05-22T23:09:20.162Z,67.79
2023-05-22T23:12:21.524Z,66.98
2023-05-22T23:15:22.973Z,67.73
2023-05-22T23:18:24.379Z,68.96
2023-05-22T23:21:26.327Z,68.95
2023-05-22T23:24:27.643Z,70.10
2023-05-22T23:27:28.990Z,70.18
2023-05-22T23:30:30.335Z,71.77
2023-05-22T23:33:31.672Z,71.93
2023-05-22T23:36:33.473Z,71.22
2023-05-22T23:39:34.916Z,71.24
2023-05-22T23:42:36.334Z,72.06
2023-05-22T23:45:37.730Z,72.54
2023-05-22T23:48:39.501Z,72.61
2023-05-22T23:51:40.870Z,71.90
2023-05-22T23:54:42.219Z,72.84
2023-05-22T23:57:43.593Z,73.88
